Time;durP1;ratioP1;P1;durP2;ratioP2;P2;SDS_P1;SDS_P2;PMS_P1;PMS_P2;Temp;Humidity;BMP_temperature;BMP_pressure;BME280_temperature;BME280_humidity;BME280_pressure;Samples;Min_cycle;Max_cycle;Signal;HPM_P1;HPM_P2
2022/11/10 00:00:44;;;;;;;1.73;1.00;;;16.30;70.00;;;;;;5033778;28;20402;-72
2022/11/10 00:03:11;;;;;;;2.15;0.90;;;16.30;70.10;;;;;;5033408;28;20243;-73
2022/11/10 00:05:38;;;;;;;1.33;0.80;;;16.30;70.10;;;;;;5033306;28;20049;-73
2022/11/10 00:08:06;;;;;;;0.90;0.75;;;16.30;70.10;;;;;;5033362;28;20063;-73
2022/11/10 00:10:55;;;;;;;2.10;1.10;;;16.30;70.10;;;;;;5032608;28;20406;-73
2022/11/10 00:13:21;;;;;;;1.67;1.00;;;16.30;70.10;;;;;;5032982;28;20057;-72
2022/11/10 00:18:37;;;;;;;1.80;1.00;;;16.20;70.10;;;;;;4979599;28;20046;-73
2022/11/10 00:21:05;;;;;;;1.98;1.00;;;16.20;70.10;;;;;;5032463;28;20053;-72
2022/11/10 00:23:32;;;;;;;2.30;1.10;;;16.30;70.20;;;;;;5032444;28;20061;-72
2022/11/10 00:25:59;;;;;;;2.30;1.00;;;16.20;70.10;;;;;;5034533;28;20125;-73
2022/11/10 00:28:27;;;;;;;2.17;0.93;;;16.20;70.70;;;;;;5033138;28;20053;-73
2022/11/10 00:30:53;;;;;;;3.45;1.58;;;16.20;70.20;;;;;;5032892;28;20064;-73
2022/11/10 00:33:20;;;;;;;1.80;0.90;;;16.20;70.20;;;;;;5032571;28;20059;-73
2022/11/10 00:35:47;;;;;;;1.35;0.75;;;16.20;70.20;;;;;;5032871;28;20482;-72
2022/11/10 00:38:13;;;;;;;1.25;0.95;;;16.20;70.20;;;;;;5034025;28;20072;-73
2022/11/10 00:40:40;;;;;;;1.65;0.85;;;16.20;70.20;;;;;;5032005;28;20041;-73
2022/11/10 00:43:07;;;;;;;2.13;0.93;;;16.20;70.20;;;;;;5033690;28;20049;-72
2022/11/10 00:45:35;;;;;;;1.70;0.82;;;16.20;70.20;;;;;;5032688;28;20083;-74
2022/11/10 00:48:01;;;;;;;2.00;1.15;;;16.20;70.30;;;;;;5032695;28;20072;-73
2022/11/10 00:50:28;;;;;;;2.42;1.10;;;16.10;70.20;;;;;;5031757;28;20483;-73
2022/11/10 00:52:55;;;;;;;2.13;1.10;;;16.20;70.30;;;;;;5032243;28;20057;-72
2022/11/10 00:55:21;;;;;;;3.22;1.00;;;16.20;70.30;;;;;;5032569;28;20057;-72
2022/11/10 00:57:48;;;;;;;1.98;1.08;;;16.20;70.30;;;;;;5032440;28;20064;-73
2022/11/10 01:00:15;;;;;;;1.50;1.02;;;16.10;70.20;;;;;;5031637;28;20053;-73
2022/11/10 01:02:44;;;;;;;2.45;1.10;;;16.10;70.30;;;;;;5048873;28;20063;-73
2022/11/10 01:05:10;;;;;;;2.58;1.20;;;16.10;70.30;;;;;;5032207;28;20469;-73
2022/11/10 01:07:37;;;;;;;2.40;1.10;;;16.10;70.30;;;;;;5032438;28;20053;-72
2022/11/10 01:10:05;;;;;;;1.77;1.08;;;16.10;72.30;;;;;;5031671;28;20052;-73
2022/11/10 01:12:31;;;;;;;2.95;1.10;;;16.10;70.30;;;;;;5032077;28;20472;-73
2022/11/10 01:14:58;;;;;;;1.70;1.00;;;16.10;70.80;;;;;;5032181;28;20057;-74
2022/11/10 01:17:25;;;;;;;2.03;1.00;;;16.10;70.30;;;;;;5032158;28;20479;-73
2022/11/10 01:19:53;;;;;;;2.85;1.30;;;16.10;70.30;;;;;;5031540;28;20060;-72
2022/11/10 01:22:20;;;;;;;2.47;1.10;;;16.10;70.30;;;;;;5031028;28;20057;-72
2022/11/10 01:24:46;;;;;;;1.95;1.20;;;16.10;70.30;;;;;;5032021;28;20132;-72
2022/11/10 01:27:13;;;;;;;2.03;1.00;;;16.10;70.30;;;;;;5032046;28;20049;-73
2022/11/10 01:29:40;;;;;;;2.67;1.00;;;16.10;70.30;;;;;;5031793;28;20566;-72
2022/11/10 01:32:06;;;;;;;2.15;1.20;;;16.10;70.30;;;;;;5032042;28;20081;-73
2022/11/10 01:34:33;;;;;;;1.35;1.00;;;16.10;70.30;;;;;;5031547;28;20156;-72
2022/11/10 01:37:01;;;;;;;1.98;1.05;;;16.10;70.30;;;;;;5030938;28;20057;-73
2022/11/10 01:39:28;;;;;;;1.10;0.90;;;16.10;70.30;;;;;;5032405;28;20068;-73
2022/11/10 01:41:54;;;;;;;2.13;1.10;;;16.10;70.30;;;;;;5031108;28;20061;-72
2022/11/10 01:44:22;;;;;;;1.70;1.00;;;16.10;70.30;;;;;;5032669;28;20045;-73
2022/11/10 01:46:49;;;;;;;2.22;1.00;;;16.10;70.30;;;;;;5031449;28;20076;-73
2022/11/10 01:49:17;;;;;;;1.45;1.20;;;16.10;70.30;;;;;;5031284;28;20049;-72
2022/11/10 01:51:47;;;;;;;3.33;1.20;;;16.00;70.30;;;;;;5030822;28;20063;-73
2022/11/10 01:54:17;;;;;;;1.98;1.20;;;16.00;70.30;;;;;;5031036;28;20054;-73
2022/11/10 01:56:45;;;;;;;1.38;1.13;;;16.00;70.30;;;;;;5031487;28;20494;-73
2022/11/10 01:59:13;;;;;;;2.55;1.10;;;16.00;70.30;;;;;;5031780;28;20083;-73
2022/11/10 02:01:40;;;;;;;2.58;1.23;;;16.00;70.30;;;;;;5030370;28;20061;-73
2022/11/10 02:04:08;;;;;;;2.08;1.20;;;16.00;70.40;;;;;;5031138;28;20140;-73
2022/11/10 02:06:37;;;;;;;2.25;1.08;;;16.00;70.40;;;;;;5031419;28;20057;-73
2022/11/10 02:09:04;;;;;;;1.60;1.10;;;16.00;70.40;;;;;;5031316;28;20054;-72
2022/11/10 02:11:32;;;;;;;1.98;1.10;;;16.00;70.40;;;;;;5030213;28;20057;-73
2022/11/10 02:13:58;;;;;;;3.33;1.20;;;16.00;70.40;;;;;;5031036;28;20387;-73
2022/11/10 02:16:25;;;;;;;2.85;1.23;;;16.00;70.40;;;;;;5031118;28;20152;-73
2022/11/10 02:18:52;;;;;;;2.67;1.13;;;16.00;70.40;;;;;;5031837;28;20607;-73
2022/11/10 02:21:20;;;;;;;2.42;1.10;;;16.00;70.40;;;;;;5030494;28;20057;-73
2022/11/10 02:23:48;;;;;;;2.55;1.27;;;16.00;70.40;;;;;;5031081;28;20049;-73
2022/11/10 02:26:20;;;;;;;3.65;1.20;;;16.00;70.40;;;;;;5031934;28;20127;-73
2022/11/10 02:28:47;;;;;;;2.03;1.20;;;16.00;70.40;;;;;;5030075;28;20049;-73
2022/11/10 02:31:14;;;;;;;2.15;1.20;;;15.90;72.40;;;;;;5031620;28;20080;-73
2022/11/10 02:33:41;;;;;;;3.13;1.10;;;15.90;70.40;;;;;;5031343;28;20057;-73
2022/11/10 02:36:08;;;;;;;4.30;1.10;;;15.90;70.40;;;;;;5032342;28;20053;-73
2022/11/10 02:38:36;;;;;;;2.33;1.08;;;15.90;70.40;;;;;;5030882;28;20053;-73
2022/11/10 02:41:03;;;;;;;1.20;1.10;;;15.90;70.40;;;;;;5029877;28;20080;-73
2022/11/10 02:43:30;;;;;;;2.78;1.00;;;15.90;70.40;;;;;;5031685;28;20049;-73
2022/11/10 02:45:56;;;;;;;1.60;1.10;;;15.90;70.40;;;;;;5032071;28;20046;-73
2022/11/10 02:48:23;;;;;;;3.17;1.13;;;15.90;70.40;;;;;;5034994;28;20143;-72
2022/11/10 02:50:50;;;;;;;2.80;1.17;;;15.90;70.40;;;;;;5035405;28;20071;-73
2022/11/10 02:53:16;;;;;;;2.15;1.02;;;15.90;70.40;;;;;;5034927;28;20139;-73
2022/11/10 02:55:45;;;;;;;3.00;1.48;;;15.90;70.40;;;;;;5035904;28;20053;-72
2022/11/10 02:58:12;;;;;;;1.67;0.93;;;15.90;70.40;;;;;;5034950;28;20057;-73
2022/11/10 03:00:38;;;;;;;2.03;1.30;;;15.90;70.50;;;;;;5034118;28;20078;-73
2022/11/10 03:03:05;;;;;;;1.90;1.10;;;15.90;70.50;;;;;;5035710;28;20434;-73
2022/11/10 03:05:32;;;;;;;2.10;1.10;;;15.90;70.50;;;;;;5034721;28;20060;-73
2022/11/10 03:08:00;;;;;;;1.88;1.20;;;15.90;70.50;;;;;;5034446;28;20049;-73
2022/11/10 03:10:27;;;;;;;1.75;1.30;;;15.90;70.50;;;;;;5033610;28;20132;-73
2022/11/10 03:12:55;;;;;;;2.78;1.40;;;15.90;70.50;;;;;;5034603;28;20063;-72
2022/11/10 03:15:22;;;;;;;1.52;1.20;;;15.90;70.50;;;;;;5034436;28;20049;-74
2022/11/10 03:17:48;;;;;;;3.35;1.40;;;15.90;70.50;;;;;;5034282;28;20057;-73
2022/11/10 03:20:15;;;;;;;3.33;1.20;;;15.90;70.50;;;;;;5033466;28;20510;-73
2022/11/10 03:22:42;;;;;;;1.98;1.10;;;15.80;70.40;;;;;;5034414;28;20087;-73
2022/11/10 03:25:09;;;;;;;2.20;1.10;;;15.80;70.40;;;;;;5034094;28;20067;-73
2022/11/10 03:27:36;;;;;;;2.20;1.10;;;15.90;70.40;;;;;;5034325;28;20535;-74
2022/11/10 03:30:05;;;;;;;2.70;1.30;;;15.80;70.40;;;;;;5032849;28;20064;-73
2022/11/10 03:32:31;;;;;;;2.25;1.17;;;15.80;70.40;;;;;;5034211;28;20057;-73
2022/11/10 03:34:58;;;;;;;1.42;1.02;;;15.80;70.40;;;;;;5033910;28;20057;-72
2022/11/10 03:37:25;;;;;;;2.17;1.42;;;15.80;70.40;;;;;;5034160;28;20064;-73
2022/11/10 03:39:51;;;;;;;1.83;1.10;;;15.80;70.40;;;;;;5033130;28;20049;-73
2022/11/10 03:42:18;;;;;;;3.05;1.17;;;15.80;70.40;;;;;;5033555;28;20057;-73
2022/11/10 03:44:45;;;;;;;2.15;1.20;;;15.80;70.40;;;;;;5034966;28;20414;-73
2022/11/10 03:47:13;;;;;;;1.92;1.00;;;15.80;70.40;;;;;;5033975;28;20140;-73
2022/11/10 03:49:40;;;;;;;1.70;1.00;;;15.80;70.40;;;;;;5033364;28;20049;-73
2022/11/10 03:52:06;;;;;;;2.00;1.00;;;15.80;70.40;;;;;;5034031;28;20056;-73
2022/11/10 03:54:33;;;;;;;2.30;1.20;;;15.80;70.40;;;;;;5033662;28;20398;-73
2022/11/10 03:57:00;;;;;;;3.20;1.20;;;15.80;70.40;;;;;;5033835;28;20050;-73
2022/11/10 03:59:26;;;;;;;1.63;1.17;;;15.80;70.40;;;;;;5033725;28;20051;-73
2022/11/10 04:01:53;;;;;;;5.03;1.52;;;15.80;70.40;;;;;;5032988;28;20057;-72
2022/11/10 04:09:50;;;;;;;3.30;1.10;;;15.80;70.30;;;;;;5034906;28;19917;-73
2022/11/10 04:17:48;;;;;;;2.83;1.20;;;15.80;70.50;;;;;;5033127;28;20049;-73
2022/11/10 04:20:17;;;;;;;2.28;1.30;;;15.70;71.00;;;;;;5032570;28;20073;-73
2022/11/10 04:25:28;;;;;;;1.85;1.10;;;15.80;70.50;;;;;;5034152;28;20442;-73
2022/11/10 04:27:55;;;;;;;3.10;1.42;;;15.80;70.50;;;;;;5032953;28;20132;-73
2022/11/10 04:30:21;;;;;;;2.40;1.23;;;15.80;70.50;;;;;;5033786;28;20171;-73
2022/11/10 04:32:48;;;;;;;1.90;1.05;;;15.70;70.40;;;;;;5034355;28;20052;-72
2022/11/10 04:35:15;;;;;;;3.08;1.35;;;15.70;70.40;;;;;;5033346;28;20056;-73
2022/11/10 04:37:43;;;;;;;2.25;1.10;;;15.70;70.40;;;;;;5034218;28;20054;-73
2022/11/10 04:40:10;;;;;;;3.63;1.35;;;15.70;70.40;;;;;;5032370;28;20041;-73
2022/11/10 04:42:39;;;;;;;2.00;1.20;;;15.80;70.40;;;;;;5033125;28;20053;-73
2022/11/10 04:45:07;;;;;;;2.30;1.08;;;15.70;70.40;;;;;;5032835;28;20053;-73
2022/11/10 04:47:33;;;;;;;3.58;1.33;;;15.70;70.40;;;;;;5033026;28;20049;-73
2022/11/10 04:50:00;;;;;;;2.90;1.40;;;15.70;70.40;;;;;;5031682;28;20052;-72
2022/11/10 04:52:27;;;;;;;1.80;1.30;;;15.70;70.40;;;;;;5033277;28;20056;-72
2022/11/10 04:54:55;;;;;;;2.80;1.50;;;15.70;70.30;;;;;;5033903;28;20061;-73
2022/11/10 04:57:22;;;;;;;2.20;1.20;;;15.70;70.30;;;;;;5034043;28;20053;-73
2022/11/10 04:59:49;;;;;;;2.90;1.40;;;15.70;70.30;;;;;;5033840;28;20045;-72
2022/11/10 05:02:16;;;;;;;2.08;1.38;;;15.70;70.30;;;;;;5031934;28;20057;-73
2022/11/10 05:04:44;;;;;;;3.75;1.60;;;15.70;70.30;;;;;;5033372;28;20046;-73
2022/11/10 05:07:10;;;;;;;3.05;1.52;;;15.70;70.40;;;;;;5032422;28;20057;-73
2022/11/10 05:09:37;;;;;;;2.33;1.27;;;15.70;70.40;;;;;;5032408;28;20057;-73
2022/11/10 05:12:06;;;;;;;1.80;1.20;;;15.70;70.40;;;;;;5031822;28;20513;-73
2022/11/10 05:14:32;;;;;;;2.30;1.30;;;15.70;70.30;;;;;;5032241;28;20483;-73
2022/11/10 05:16:59;;;;;;;2.25;1.38;;;15.70;70.40;;;;;;5032238;28;20055;-73
2022/11/10 05:19:27;;;;;;;2.97;1.30;;;15.70;70.30;;;;;;5033058;28;20128;-73
2022/11/10 05:21:53;;;;;;;2.35;1.20;;;15.70;70.40;;;;;;5031493;28;20053;-73
2022/11/10 05:24:20;;;;;;;1.50;1.02;;;15.70;70.40;;;;;;5032031;28;20067;-73
2022/11/10 05:26:47;;;;;;;3.30;1.60;;;15.70;70.40;;;;;;5033261;28;20072;-73
2022/11/10 05:29:15;;;;;;;2.83;1.42;;;15.70;70.40;;;;;;5033157;28;20057;-73
2022/11/10 05:31:41;;;;;;;2.65;1.25;;;15.70;70.40;;;;;;5031289;28;20060;-72
2022/11/10 05:34:08;;;;;;;3.50;1.40;;;15.70;70.40;;;;;;5031392;28;20057;-73
2022/11/10 05:36:35;;;;;;;1.83;1.30;;;15.70;70.40;;;;;;5032244;28;20049;-73
2022/11/10 05:39:01;;;;;;;1.70;1.20;;;15.70;70.40;;;;;;5031910;28;20702;-73
2022/11/10 05:41:28;;;;;;;2.45;1.40;;;15.70;70.40;;;;;;5032525;28;20059;-73
2022/11/10 05:43:55;;;;;;;3.92;1.42;;;15.60;70.40;;;;;;5031694;28;20057;-73
2022/11/10 05:46:24;;;;;;;2.83;1.20;;;15.70;70.40;;;;;;5032768;28;20053;-73
2022/11/10 05:48:51;;;;;;;2.90;1.30;;;15.60;70.40;;;;;;5031866;28;20089;-73
2022/11/10 05:51:17;;;;;;;3.08;1.77;;;15.60;70.40;;;;;;5031202;28;20059;-73
2022/11/10 05:53:44;;;;;;;2.97;1.50;;;15.60;70.40;;;;;;5031330;28;20072;-72
2022/11/10 05:56:11;;;;;;;2.95;1.50;;;15.60;70.40;;;;;;5031804;28;20061;-73
2022/11/10 05:58:37;;;;;;;2.53;1.40;;;15.60;70.40;;;;;;5031561;28;20086;-73
2022/11/10 06:01:05;;;;;;;3.30;1.40;;;15.60;70.40;;;;;;5030809;28;20061;-73
2022/11/10 06:03:33;;;;;;;4.45;1.60;;;15.60;70.40;;;;;;5031126;28;20058;-73
2022/11/10 06:05:59;;;;;;;3.30;1.63;;;15.60;70.40;;;;;;5032730;28;20414;-73
2022/11/10 06:08:26;;;;;;;2.17;1.33;;;15.60;70.40;;;;;;5031306;28;20045;-73
2022/11/10 06:10:53;;;;;;;3.25;1.55;;;15.60;70.40;;;;;;5032028;28;20059;-72
2022/11/10 06:13:20;;;;;;;2.40;1.52;;;15.60;70.40;;;;;;5030934;28;20128;-73
2022/11/10 06:15:46;;;;;;;2.50;1.40;;;15.60;70.40;;;;;;5031146;28;20057;-73
2022/11/10 06:18:13;;;;;;;3.33;1.60;;;15.60;70.40;;;;;;5032722;28;20430;-73
2022/11/10 06:20:41;;;;;;;4.07;1.90;;;15.60;70.40;;;;;;5030059;28;20056;-73
2022/11/10 06:23:10;;;;;;;3.60;1.42;;;15.60;70.40;;;;;;5031508;28;20053;-73
2022/11/10 06:25:37;;;;;;;2.40;1.50;;;15.60;70.40;;;;;;5031300;28;20057;-73
2022/11/10 06:28:05;;;;;;;3.28;1.67;;;15.60;70.40;;;;;;5031670;28;20045;-73
2022/11/10 06:30:32;;;;;;;3.08;1.40;;;15.60;70.40;;;;;;5030086;28;20513;-72
2022/11/10 06:32:59;;;;;;;2.67;1.33;;;15.60;70.40;;;;;;5030851;28;20056;-73
2022/11/10 06:35:26;;;;;;;2.58;1.50;;;15.60;70.50;;;;;;5030953;28;20085;-73
2022/11/10 06:38:01;;;;;;;2.92;1.65;;;15.60;70.40;;;;;;5030740;28;20053;-73
2022/11/10 06:40:27;;;;;;;;;;;15.60;70.40;;;;;;5030344;28;20479;-72
2022/11/10 06:42:54;;;;;;;3.55;1.55;;;15.60;70.30;;;;;;5030852;28;19943;-73
2022/11/10 06:45:21;;;;;;;2.47;1.40;;;15.60;70.60;;;;;;5030915;28;20482;-73
2022/11/10 06:47:48;;;;;;;2.47;1.50;;;15.60;70.50;;;;;;5030901;28;20050;-73
2022/11/10 06:50:15;;;;;;;2.97;1.35;;;15.60;70.50;;;;;;5029768;28;20057;-73
2022/11/10 06:52:42;;;;;;;2.55;1.58;;;15.60;70.50;;;;;;5031840;28;20052;-73
2022/11/10 06:55:10;;;;;;;3.30;1.60;;;15.60;70.50;;;;;;5031520;28;20053;-73
2022/11/10 06:57:38;;;;;;;3.08;1.55;;;15.60;70.50;;;;;;5031249;28;20060;-73
2022/11/10 07:00:05;;;;;;;2.85;1.60;;;15.60;70.50;;;;;;5029774;28;20068;-73
2022/11/10 07:02:32;;;;;;;2.05;1.50;;;15.60;70.50;;;;;;5030810;28;20061;-73
2022/11/10 07:04:58;;;;;;;3.05;1.50;;;15.60;70.50;;;;;;5030636;28;20059;-73
2022/11/10 07:07:28;;;;;;;3.50;1.55;;;15.60;70.50;;;;;;5031211;28;20124;-73
2022/11/10 07:09:55;;;;;;;3.53;1.65;;;15.60;70.50;;;;;;5029600;28;20136;-75
2022/11/10 07:12:23;;;;;;;2.90;1.50;;;15.60;70.50;;;;;;5030828;28;20136;-73
2022/11/10 07:14:50;;;;;;;2.20;1.50;;;15.60;70.50;;;;;;5030070;28;20497;-73
2022/11/10 07:17:16;;;;;;;2.38;1.40;;;15.60;70.50;;;;;;5030231;28;20144;-73
2022/11/10 07:19:43;;;;;;;2.50;1.48;;;15.60;70.50;;;;;;5030379;28;20506;-73
2022/11/10 07:22:10;;;;;;;4.30;1.45;;;15.60;70.50;;;;;;5029671;28;20054;-73
2022/11/10 07:24:36;;;;;;;3.20;1.65;;;15.60;70.50;;;;;;5030385;28;20054;-73
2022/11/10 07:27:03;;;;;;;3.65;1.60;;;15.60;70.50;;;;;;5035433;28;20399;-73
2022/11/10 07:29:31;;;;;;;2.55;1.58;;;15.60;70.50;;;;;;5030385;28;20136;-73
2022/11/10 07:31:58;;;;;;;2.47;1.42;;;15.60;70.50;;;;;;5029628;28;20053;-73
2022/11/10 07:34:25;;;;;;;3.78;1.60;;;15.60;70.50;;;;;;5033338;28;20138;-73
2022/11/10 07:36:51;;;;;;;3.15;1.83;;;15.70;70.50;;;;;;5034073;28;20063;-72
2022/11/10 07:39:18;;;;;;;3.60;1.63;;;15.70;70.40;;;;;;5034757;28;20064;-73
2022/11/10 07:41:45;;;;;;;2.97;1.70;;;15.70;70.40;;;;;;5034315;28;20049;-73
2022/11/10 07:44:11;;;;;;;2.17;1.38;;;15.80;70.40;;;;;;5033510;28;20147;-73
2022/11/10 07:46:39;;;;;;;3.00;1.60;;;15.80;70.30;;;;;;5034433;28;20056;-72
2022/11/10 07:49:07;;;;;;;2.83;1.65;;;15.80;70.20;;;;;;5034210;28;20536;-72
2022/11/10 07:51:34;;;;;;;2.30;1.42;;;15.90;70.20;;;;;;5032938;28;20053;-72
2022/11/10 07:54:00;;;;;;;1.95;1.40;;;15.90;70.10;;;;;;5052278;28;20059;-72
2022/11/10 07:56:27;;;;;;;3.38;1.35;;;16.00;70.60;;;;;;5053132;28;20063;-72
2022/11/10 07:58:54;;;;;;;3.28;1.50;;;16.00;70.00;;;;;;5053663;28;20065;-71
2022/11/10 08:01:20;;;;;;;3.67;1.10;;;16.10;70.00;;;;;;5042019;28;20053;-72
2022/11/10 08:03:48;;;;;;;3.08;1.48;;;16.10;69.90;;;;;;5034004;28;20055;-73
2022/11/10 08:06:15;;;;;;;2.22;1.30;;;16.10;69.80;;;;;;5033116;28;20057;-73
2022/11/10 08:08:42;;;;;;;2.83;1.38;;;16.20;69.80;;;;;;5033216;28;20059;-73
2022/11/10 08:11:08;;;;;;;3.40;1.30;;;16.20;69.70;;;;;;5028436;28;20060;-71
2022/11/10 08:13:35;;;;;;;2.90;1.33;;;16.20;69.70;;;;;;5041758;28;20064;-70
2022/11/10 08:16:02;;;;;;;2.80;1.42;;;16.30;69.70;;;;;;5032289;28;20057;-71
2022/11/10 08:18:28;;;;;;;3.67;1.65;;;16.30;69.60;;;;;;5034442;28;20099;-74
2022/11/10 08:20:56;;;;;;;2.55;1.30;;;16.30;69.50;;;;;;5031219;28;20049;-72
2022/11/10 08:23:23;;;;;;;2.40;1.38;;;16.40;69.50;;;;;;5032747;28;20384;-72
2022/11/10 08:25:52;;;;;;;2.20;1.30;;;16.40;69.50;;;;;;5033104;28;20064;-73
2022/11/10 08:28:18;;;;;;;3.92;1.70;;;16.40;69.40;;;;;;5032953;28;20290;-73
2022/11/10 08:30:46;;;;;;;4.40;1.63;;;16.40;69.50;;;;;;5033388;28;20053;-73
2022/11/10 08:33:15;;;;;;;4.97;2.10;;;16.50;69.70;;;;;;5031759;28;20057;-73
2022/11/10 08:35:43;;;;;;;6.07;2.15;;;16.50;69.80;;;;;;5032987;28;20063;-72
2022/11/10 08:38:12;;;;;;;2.92;1.77;;;16.50;69.90;;;;;;5033948;28;20049;-72
2022/11/10 08:40:38;;;;;;;5.80;1.80;;;16.60;69.70;;;;;;5032183;28;20064;-72
2022/11/10 08:43:08;;;;;;;5.38;2.08;;;16.60;69.70;;;;;;5031838;28;20057;-72
2022/11/10 08:45:35;;;;;;;5.20;1.80;;;16.60;69.60;;;;;;5031741;28;20132;-72
2022/11/10 08:48:03;;;;;;;4.35;1.80;;;16.60;69.60;;;;;;5033072;28;20068;-72
2022/11/10 08:50:29;;;;;;;4.05;1.48;;;16.60;69.50;;;;;;5028694;28;20388;-73
2022/11/10 08:52:56;;;;;;;4.65;1.88;;;16.60;69.40;;;;;;5032430;28;20080;-72
2022/11/10 08:55:24;;;;;;;6.78;2.17;;;16.70;69.50;;;;;;5031859;28;20132;-73
2022/11/10 08:57:51;;;;;;;3.90;1.60;;;16.70;69.50;;;;;;5031779;28;20080;-73
2022/11/10 09:00:18;;;;;;;4.05;1.45;;;16.70;69.50;;;;;;5040441;28;20060;-72
2022/11/10 09:02:45;;;;;;;5.53;1.80;;;16.70;69.40;;;;;;5041905;28;20485;-73
2022/11/10 09:05:12;;;;;;;4.25;1.58;;;16.70;69.40;;;;;;5042232;28;20053;-73
2022/11/10 09:07:45;;;;;;;2.45;1.60;;;16.80;69.40;;;;;;5047315;28;20044;-73
2022/11/10 09:10:11;;;;;;;4.32;1.73;;;16.80;69.40;;;;;;5039009;28;20046;-73
2022/11/10 09:12:40;;;;;;;4.95;1.90;;;16.70;69.30;;;;;;5044369;28;20041;-73
2022/11/10 09:15:07;;;;;;;5.15;1.85;;;16.80;69.40;;;;;;5041428;28;20057;-73
2022/11/10 09:17:34;;;;;;;3.97;1.70;;;16.80;69.30;;;;;;5041799;28;20132;-73
2022/11/10 09:20:01;;;;;;;4.13;1.42;;;16.80;69.30;;;;;;5041407;28;20410;-73
2022/11/10 09:22:28;;;;;;;4.35;1.70;;;16.80;69.30;;;;;;5039499;28;20135;-73
2022/11/10 09:24:54;;;;;;;5.05;1.50;;;16.80;69.20;;;;;;5037107;28;20057;-74
2022/11/10 09:27:21;;;;;;;2.97;1.70;;;16.80;69.20;;;;;;5031377;28;20491;-73
2022/11/10 09:29:49;;;;;;;3.75;1.40;;;16.80;69.20;;;;;;5030138;28;20052;-73
2022/11/10 09:32:16;;;;;;;3.65;1.50;;;16.90;69.20;;;;;;5013781;28;20060;-73
2022/11/10 09:34:43;;;;;;;3.95;1.60;;;16.90;69.20;;;;;;5017792;28;20057;-74
2022/11/10 09:37:09;;;;;;;5.15;1.90;;;16.90;69.20;;;;;;5032092;28;20050;-73
2022/11/10 09:39:36;;;;;;;2.92;1.45;;;16.90;69.20;;;;;;5039097;28;20140;-72
2022/11/10 09:42:04;;;;;;;4.75;1.60;;;16.90;69.10;;;;;;5042954;28;20475;-72
2022/11/10 09:44:32;;;;;;;3.67;1.50;;;16.90;69.10;;;;;;5035823;28;20059;-73
2022/11/10 09:47:02;;;;;;;5.20;1.80;;;16.90;69.10;;;;;;5030105;28;20067;-73
2022/11/10 09:49:32;;;;;;;5.30;2.30;;;17.00;69.10;;;;;;5029965;28;20053;-73
2022/11/10 09:52:00;;;;;;;2.72;1.40;;;17.00;69.10;;;;;;5029245;28;20505;-73
2022/11/10 09:54:34;;;;;;;3.97;1.60;;;17.00;69.00;;;;;;5042359;28;20417;-73
2022/11/10 09:57:01;;;;;;;3.07;1.30;;;17.00;69.00;;;;;;5051706;28;20049;-73
2022/11/10 09:59:28;;;;;;;2.65;1.60;;;17.00;69.00;;;;;;5031378;28;20864;-72
2022/11/10 10:01:57;;;;;;;4.18;1.45;;;17.00;68.90;;;;;;5030577;28;20053;-72
2022/11/10 10:04:44;;;;;;;4.00;1.83;;;17.00;68.90;;;;;;5031203;28;20055;-74
2022/11/10 10:07:13;;;;;;;3.35;1.40;;;17.10;68.90;;;;;;5031098;28;20089;-74
2022/11/10 10:09:43;;;;;;;3.42;1.40;;;17.10;68.90;;;;;;5033825;28;20399;-74
2022/11/10 10:12:18;;;;;;;6.18;1.63;;;17.10;69.00;;;;;;5048144;28;20136;-73
2022/11/10 10:15:03;;;;;;;3.03;1.70;;;17.10;69.00;;;;;;5031940;28;20479;-73
2022/11/10 10:17:34;;;;;;;4.13;1.90;;;17.10;68.90;;;;;;5029489;28;20053;-72
2022/11/10 10:20:03;;;;;;;2.70;1.50;;;17.10;68.90;;;;;;5028827;28;20140;-73
2022/11/10 10:23:01;;;;;;;3.30;1.42;;;17.10;68.90;;;;;;5030221;28;20080;-71
2022/11/10 10:25:31;;;;;;;3.47;1.70;;;17.20;68.90;;;;;;5038888;28;20126;-71
2022/11/10 10:28:20;;;;;;;4.43;1.70;;;17.10;68.80;;;;;;5039385;28;20047;-71
2022/11/10 10:30:47;;;;;;;5.70;2.30;;;17.20;68.90;;;;;;5037070;28;20060;-71
2022/11/10 10:33:17;;;;;;;4.15;1.77;;;17.20;68.80;;;;;;5035808;28;20404;-71
2022/11/10 10:35:45;;;;;;;4.18;1.90;;;17.20;68.80;;;;;;5047377;28;20048;-71
2022/11/10 10:38:19;;;;;;;7.05;1.98;;;17.20;68.80;;;;;;5043385;28;20056;-71
2022/11/10 10:40:49;;;;;;;5.43;2.17;;;17.20;68.80;;;;;;5029205;28;20053;-71
2022/11/10 10:43:15;;;;;;;7.68;2.42;;;17.20;68.90;;;;;;5035134;28;20056;-71
2022/11/10 10:45:42;;;;;;;6.82;2.10;;;17.20;69.00;;;;;;5034679;28;20398;-71
2022/11/10 10:48:23;;;;;;;3.83;2.10;;;17.20;69.00;;;;;;5023542;28;20060;-71
2022/11/10 10:50:51;;;;;;;4.95;2.03;;;17.20;69.10;;;;;;5035075;28;20053;-71
2022/11/10 10:53:19;;;;;;;9.05;2.00;;;17.20;69.10;;;;;;5040336;28;20057;-71
2022/11/10 10:55:48;;;;;;;4.90;2.20;;;17.20;69.30;;;;;;5045186;28;20055;-71
2022/11/10 10:58:23;;;;;;;9.05;2.40;;;17.20;69.30;;;;;;5029255;28;20054;-71
2022/11/10 11:00:50;;;;;;;;;;;17.20;69.50;;;;;;5036821;28;20055;-71
2022/11/10 11:03:22;;;;;;;7.93;2.20;;;17.10;69.50;;;;;;5050597;28;20485;-71
2022/11/10 11:06:07;;;;;;;4.97;2.15;;;17.10;69.60;;;;;;5034716;28;20060;-70
2022/11/10 11:08:34;;;;;;;;;;;17.10;69.60;;;;;;5031389;28;20493;-71
2022/11/10 11:11:08;;;;;;;5.35;2.28;;;17.10;69.60;;;;;;5032515;28;19921;-71
2022/11/10 11:13:35;;;;;;;6.13;2.38;;;17.10;69.80;;;;;;5034638;28;20187;-71
2022/11/10 11:16:02;;;;;;;4.78;2.10;;;17.10;69.80;;;;;;5032242;28;20061;-70
2022/11/10 11:18:30;;;;;;;4.50;1.80;;;17.10;69.80;;;;;;5029485;28;20049;-71
2022/11/10 11:21:00;;;;;;;5.07;2.03;;;17.10;69.80;;;;;;5013837;28;20201;-71
2022/11/10 11:24:00;;;;;;;5.43;2.25;;;17.20;69.90;;;;;;5014145;28;20140;-71
2022/11/10 11:26:33;;;;;;;6.30;2.15;;;17.10;69.90;;;;;;5013348;28;20062;-71
2022/11/10 11:29:03;;;;;;;4.38;1.80;;;17.10;70.00;;;;;;5023211;28;20054;-71
2022/11/10 11:31:33;;;;;;;7.47;2.25;;;17.10;70.00;;;;;;5018849;28;20038;-70
2022/11/10 11:34:01;;;;;;;3.75;1.95;;;17.10;70.00;;;;;;5013445;28;20387;-70
2022/11/10 11:36:32;;;;;;;5.20;1.80;;;17.10;70.00;;;;;;5029811;28;20146;-70
2022/11/10 11:39:01;;;;;;;6.03;1.92;;;17.10;70.00;;;;;;5029586;28;20136;-70
2022/11/10 11:41:33;;;;;;;4.88;2.08;;;17.00;70.00;;;;;;5032990;28;20049;-71
2022/11/10 11:44:13;;;;;;;7.38;2.20;;;17.10;70.00;;;;;;5027044;28;20431;-71
2022/11/10 11:46:43;;;;;;;5.45;1.90;;;17.10;70.00;;;;;;5042607;28;20487;-70
2022/11/10 11:49:30;;;;;;;7.13;2.00;;;17.00;70.00;;;;;;5028645;28;20410;-70
2022/11/10 11:52:01;;;;;;;4.60;2.22;;;17.00;70.00;;;;;;5020766;28;20064;-71
2022/11/10 11:54:28;;;;;;;3.33;1.77;;;17.00;70.00;;;;;;5016471;28;20060;-70
2022/11/10 11:56:59;;;;;;;6.32;2.00;;;17.00;70.10;;;;;;5045011;28;20068;-72
2022/11/10 11:59:36;;;;;;;3.95;1.85;;;17.00;70.10;;;;;;5016338;28;20062;-70
2022/11/10 12:02:28;;;;;;;5.47;2.00;;;17.00;70.00;;;;;;5020215;28;20052;-71
2022/11/10 12:04:59;;;;;;;3.80;2.00;;;17.00;69.90;;;;;;5027763;28;20415;-71
2022/11/10 12:07:34;;;;;;;5.25;2.15;;;17.00;70.10;;;;;;5032611;28;20053;-71
2022/11/10 12:10:06;;;;;;;5.50;1.90;;;17.00;70.10;;;;;;5015070;28;20141;-71
2022/11/10 12:12:57;;;;;;;4.50;2.05;;;17.00;71.80;;;;;;5016418;28;20057;-71
2022/11/10 12:15:29;;;;;;;4.15;1.90;;;17.00;70.00;;;;;;5014350;28;20052;-73
2022/11/10 12:18:00;;;;;;;3.63;1.85;;;17.00;70.10;;;;;;5051383;28;20056;-73
2022/11/10 12:20:32;;;;;;;5.72;1.95;;;17.00;70.10;;;;;;5026786;28;20049;-73
2022/11/10 12:23:01;;;;;;;5.22;2.42;;;17.00;70.10;;;;;;5013123;28;20053;-73
2022/11/10 12:25:30;;;;;;;3.72;1.60;;;17.00;70.20;;;;;;5028968;28;20151;-73
2022/11/10 12:28:07;;;;;;;4.60;1.70;;;16.90;70.10;;;;;;5040720;28;20058;-73
2022/11/10 12:30:34;;;;;;;4.07;1.98;;;17.00;70.20;;;;;;5036964;28;20054;-73
2022/11/10 12:33:04;;;;;;;3.33;1.90;;;16.90;70.20;;;;;;5039363;28;20056;-73
2022/11/10 12:35:32;;;;;;;4.13;1.80;;;16.90;70.20;;;;;;5032582;28;20098;-73
2022/11/10 12:38:00;;;;;;;3.60;1.80;;;16.90;70.20;;;;;;5040193;28;20052;-73
2022/11/10 12:40:28;;;;;;;6.85;2.00;;;16.90;70.20;;;;;;5042242;28;20059;-73
2022/11/10 12:42:58;;;;;;;4.18;1.70;;;16.90;70.20;;;;;;5042060;28;20054;-73
2022/11/10 12:45:26;;;;;;;5.45;2.08;;;16.90;70.20;;;;;;5042842;28;20048;-72
2022/11/10 12:47:53;;;;;;;4.75;1.98;;;16.90;70.30;;;;;;5030414;28;20053;-72
2022/11/10 12:50:36;;;;;;;4.65;1.90;;;16.90;70.20;;;;;;5041477;28;20414;-72
2022/11/10 12:53:05;;;;;;;6.05;1.98;;;16.90;70.10;;;;;;5022915;28;20048;-74
2022/11/10 12:55:35;;;;;;;3.17;1.60;;;16.90;70.20;;;;;;5021600;28;20203;-72
2022/11/10 12:58:03;;;;;;;3.40;1.60;;;16.90;70.20;;;;;;5019092;28;20057;-73
2022/11/10 13:00:31;;;;;;;4.50;1.70;;;16.90;70.20;;;;;;5021755;28;20137;-73
2022/11/10 13:02:58;;;;;;;3.67;1.77;;;16.80;70.10;;;;;;5035209;28;20056;-73
2022/11/10 13:05:33;;;;;;;3.88;1.80;;;16.80;70.10;;;;;;5034507;28;20057;-72
2022/11/10 13:08:34;;;;;;;4.13;1.60;;;16.80;70.00;;;;;;5032125;28;20052;-71
2022/11/10 13:11:02;;;;;;;4.40;1.67;;;16.80;69.90;;;;;;4999266;28;20059;-71